Time;durP1;ratioP1;P1;durP2;ratioP2;P2;SDS_P1;SDS_P2;PMS_P1;PMS_P2;Temp;Humidity;BMP_temperature;BMP_pressure;BME280_temperature;BME280_humidity;BME280_pressure;Samples;Min_cycle;Max_cycle;Signal;HPM_P1;HPM_P2
2022/08/11 00:00:39;;;;;;;9.30;2.50;;;27.80;99.90;;;;;;4200788;28;20112;-70
2022/08/11 00:02:50;;;;;;;9.80;3.00;;;27.90;99.90;;;;;;4208717;28;20048;-70
2022/08/11 00:04:55;;;;;;;5.05;2.40;;;27.90;99.90;;;;;;4202283;28;20697;-69
2022/08/11 00:07:00;;;;;;;3.92;2.40;;;27.90;99.90;;;;;;4192492;28;20694;-69
2022/08/11 00:09:08;;;;;;;4.40;2.50;;;27.90;99.90;;;;;;4191520;28;20052;-70
2022/08/11 00:11:15;;;;;;;7.55;2.42;;;27.90;99.90;;;;;;4192874;28;20055;-70
2022/08/11 00:13:21;;;;;;;5.88;3.28;;;27.80;99.90;;;;;;4192511;28;20054;-68
2022/08/11 00:15:27;;;;;;;8.23;3.00;;;27.80;99.90;;;;;;4203003;28;20181;-70
2022/08/11 00:17:32;;;;;;;6.07;2.85;;;27.90;99.90;;;;;;4209280;28;20052;-70
2022/08/11 00:19:47;;;;;;;5.97;2.85;;;27.90;99.90;;;;;;4196188;28;20048;-70
2022/08/11 00:22:12;;;;;;;5.22;3.28;;;27.90;99.90;;;;;;4208869;28;20048;-70
2022/08/11 00:24:16;;;;;;;5.65;3.30;;;27.90;99.90;;;;;;4208095;28;20152;-70
2022/08/11 00:26:21;;;;;;;4.47;3.10;;;28.00;99.90;;;;;;4207481;28;20044;-70
2022/08/11 00:28:28;;;;;;;6.00;3.00;;;28.00;99.90;;;;;;4208848;28;20173;-70
2022/08/11 00:30:40;;;;;;;4.80;2.67;;;28.00;99.90;;;;;;4207816;28;20628;-69
2022/08/11 00:32:54;;;;;;;4.80;2.92;;;28.10;99.90;;;;;;4208837;28;20178;-70
2022/08/11 00:34:58;;;;;;;6.05;2.65;;;28.10;99.90;;;;;;4208458;28;20058;-70
2022/08/11 00:37:23;;;;;;;6.97;2.50;;;28.20;99.90;;;;;;4205769;28;20052;-69
2022/08/11 00:39:28;;;;;;;5.07;2.25;;;28.20;99.90;;;;;;4200979;28;20051;-70
2022/08/11 00:41:47;;;;;;;5.07;2.65;;;28.10;99.90;;;;;;4200676;28;20101;-70
2022/08/11 00:44:11;;;;;;;5.13;2.40;;;28.10;99.90;;;;;;4204059;28;20052;-70
2022/08/11 00:46:50;;;;;;;5.00;2.53;;;28.20;99.90;;;;;;4207932;28;20658;-70
2022/08/11 00:49:26;;;;;;;7.38;2.70;;;28.30;99.90;;;;;;4201904;28;20159;-70
2022/08/11 00:52:01;;;;;;;6.82;2.47;;;28.30;99.90;;;;;;4192037;28;20457;-69
2022/08/11 00:54:39;;;;;;;5.95;2.38;;;28.40;99.90;;;;;;4191784;28;20079;-71
2022/08/11 00:57:18;;;;;;;11.65;3.65;;;28.40;99.90;;;;;;4206510;28;20058;-70
2022/08/11 01:00:05;;;;;;;4.05;2.25;;;28.40;99.90;;;;;;4206389;28;20458;-68
2022/08/11 01:02:25;;;;;;;3.83;2.30;;;28.50;99.90;;;;;;4207540;28;20051;-69
2022/08/11 01:04:45;;;;;;;;;;;28.60;99.90;;;;;;4209010;28;20478;-69
2022/08/11 01:07:04;;;;;;;;;;;28.60;99.90;;;;;;4209197;28;19946;-71
2022/08/11 01:09:36;;;;;;;5.10;2.58;;;28.50;99.90;;;;;;4208424;28;19939;-69
2022/08/11 01:12:12;;;;;;;8.15;3.42;;;28.60;99.90;;;;;;4209087;28;20123;-69
2022/08/11 01:14:38;;;;;;;15.38;5.47;;;28.70;99.90;;;;;;4209015;28;20550;-70
2022/08/11 01:17:12;;;;;;;13.25;4.72;;;28.70;99.90;;;;;;4209728;28;20471;-71
2022/08/11 01:19:49;;;;;;;23.35;6.07;;;28.80;99.90;;;;;;4209145;28;20502;-71
2022/08/11 01:22:39;;;;;;;16.25;5.60;;;28.90;99.90;;;;;;4206692;28;20036;-69
2022/08/11 01:25:11;;;;;;;14.48;4.68;;;28.90;99.90;;;;;;4208451;28;20040;-71
2022/08/11 01:27:55;;;;;;;7.25;3.20;;;29.00;99.90;;;;;;4208680;28;20477;-71
2022/08/11 01:30:32;;;;;;;8.60;3.17;;;29.00;99.90;;;;;;4208711;28;20041;-70
2022/08/11 01:33:11;;;;;;;7.65;2.90;;;29.00;99.90;;;;;;4207738;28;20040;-71
2022/08/11 01:35:56;;;;;;;4.80;2.28;;;28.90;99.90;;;;;;4208725;28;20534;-70
2022/08/11 01:38:41;;;;;;;3.95;2.10;;;29.00;99.90;;;;;;4208206;28;20067;-70
2022/08/11 01:41:19;;;;;;;4.75;2.47;;;29.00;99.90;;;;;;4209592;28;20075;-72
2022/08/11 01:46:36;;;;;;;5.13;2.30;;;29.20;99.90;;;;;;4209934;28;20047;-71
2022/08/11 01:49:10;;;;;;;5.05;2.38;;;29.40;99.90;;;;;;4208845;28;20124;-69
2022/08/11 01:52:01;;;;;;;6.75;2.92;;;29.30;99.90;;;;;;4207430;28;20117;-69
2022/08/11 01:54:32;;;;;;;5.05;2.17;;;29.40;99.90;;;;;;4206428;28;20041;-69
2022/08/11 01:56:49;;;;;;;4.97;2.17;;;29.40;99.90;;;;;;4208196;28;20044;-68
2022/08/11 01:59:18;;;;;;;6.90;2.45;;;29.50;99.90;;;;;;4203243;28;20459;-69
2022/08/11 02:01:52;;;;;;;4.22;2.15;;;29.50;99.90;;;;;;4207835;28;20078;-69
2022/08/11 02:04:36;;;;;;;6.55;2.40;;;29.60;99.90;;;;;;4208104;28;20044;-67
2022/08/11 02:07:07;;;;;;;5.20;2.85;;;29.70;99.90;;;;;;4208396;28;20044;-69
2022/08/11 02:09:43;;;;;;;5.72;3.63;;;29.70;99.90;;;;;;4212200;28;20067;-68
2022/08/11 02:11:57;;;;;;;5.38;3.10;;;29.80;99.90;;;;;;4210821;28;20050;-69
2022/08/11 02:14:27;;;;;;;6.82;3.40;;;29.80;99.90;;;;;;4212514;28;20422;-68
2022/08/11 02:16:56;;;;;;;6.47;2.78;;;29.80;99.90;;;;;;4211351;28;20052;-68
2022/08/11 02:24:39;;;;;;;4.90;2.45;;;29.80;99.90;;;;;;4212380;28;20058;-68
2022/08/11 02:26:53;;;;;;;7.72;2.50;;;29.90;99.90;;;;;;4213536;28;20040;-68
2022/08/11 02:29:25;;;;;;;5.07;2.42;;;29.90;99.90;;;;;;4211740;28;20543;-67
2022/08/11 02:34:39;;;;;;;4.13;2.30;;;30.00;99.90;;;;;;4213539;28;20018;-68
2022/08/11 02:37:24;;;;;;;4.90;2.15;;;30.10;99.90;;;;;;4181588;28;20056;-68
2022/08/11 02:39:33;;;;;;;4.75;2.40;;;30.00;99.90;;;;;;4195527;28;20041;-69
2022/08/11 02:45:03;;;;;;;6.57;2.92;;;30.00;99.90;;;;;;4212883;28;20113;-68
2022/08/11 02:47:30;;;;;;;5.03;2.20;;;30.10;99.90;;;;;;4196505;28;20043;-68
2022/08/11 02:49:53;;;;;;;4.15;2.17;;;30.20;99.90;;;;;;4219699;28;20044;-69
2022/08/11 02:52:51;;;;;;;5.20;2.05;;;30.20;99.90;;;;;;4213391;28;20048;-69
2022/08/11 02:55:31;;;;;;;4.00;2.10;;;30.30;99.90;;;;;;4196358;28;20830;-69
2022/08/11 02:58:27;;;;;;;3.50;2.03;;;30.30;99.90;;;;;;4203561;28;20048;-69
2022/08/11 03:00:45;;;;;;;4.20;2.10;;;30.30;99.90;;;;;;4212919;28;20052;-69
2022/08/11 03:03:07;;;;;;;5.05;2.03;;;30.40;99.90;;;;;;4213144;28;20111;-69
2022/08/11 03:05:43;;;;;;;3.28;1.95;;;30.30;99.90;;;;;;4213024;28;20645;-69
2022/08/11 03:08:24;;;;;;;8.40;1.98;;;30.40;99.90;;;;;;4211535;28;20109;-69
2022/08/11 03:18:48;;;;;;;3.90;1.83;;;30.50;99.90;;;;;;4195919;28;20056;-68
2022/08/11 03:21:22;;;;;;;5.30;2.25;;;30.50;99.90;;;;;;4195727;28;20056;-69
2022/08/11 03:24:06;;;;;;;5.47;2.28;;;30.60;99.90;;;;;;4186591;28;20052;-68
2022/08/11 03:26:26;;;;;;;5.63;2.10;;;30.70;99.90;;;;;;4193265;28;20045;-69
2022/08/11 03:28:42;;;;;;;4.50;1.95;;;30.70;99.90;;;;;;4175763;28;20574;-69
2022/08/11 03:31:23;;;;;;;5.18;2.00;;;30.80;99.90;;;;;;4192129;28;20099;-69
2022/08/11 03:36:20;;;;;;;4.22;1.80;;;30.90;99.90;;;;;;4193290;28;20064;-69
2022/08/11 03:38:26;;;;;;;6.03;1.98;;;30.90;99.90;;;;;;4193139;28;20056;-69
2022/08/11 03:43:53;;;;;;;4.43;2.33;;;31.00;99.90;;;;;;4176745;28;20094;-69
2022/08/11 03:46:44;;;;;;;4.47;1.90;;;31.00;99.90;;;;;;4176497;28;20048;-70
2022/08/11 03:49:17;;;;;;;3.85;1.75;;;31.10;99.90;;;;;;4176527;28;20045;-69
2022/08/11 03:51:50;;;;;;;4.87;1.67;;;31.00;99.90;;;;;;4176713;28;20495;-68
2022/08/11 03:54:28;;;;;;;3.60;1.85;;;31.00;99.90;;;;;;4176589;28;20049;-67
2022/08/11 03:57:05;;;;;;;2.60;1.67;;;31.00;99.90;;;;;;4176647;28;20727;-68
2022/08/11 03:59:44;;;;;;;4.25;2.15;;;31.10;99.90;;;;;;4159240;28;20061;-68
2022/08/11 04:02:20;;;;;;;4.47;1.95;;;31.00;99.90;;;;;;4188083;28;20048;-67
2022/08/11 04:04:59;;;;;;;5.88;2.30;;;31.10;99.90;;;;;;4195383;28;20389;-68
2022/08/11 04:07:35;;;;;;;6.07;2.10;;;31.20;99.90;;;;;;4195398;28;20105;-68
2022/08/11 04:10:06;;;;;;;8.85;2.67;;;31.20;99.90;;;;;;4210626;28;20105;-69
2022/08/11 04:12:35;;;;;;;6.35;2.30;;;31.40;99.90;;;;;;4202746;28;20479;-69
2022/08/11 04:17:48;;;;;;;4.45;1.92;;;31.50;99.90;;;;;;4194862;28;20086;-68
2022/08/11 04:20:29;;;;;;;4.85;2.00;;;31.60;99.90;;;;;;4202652;28;20101;-68
2022/08/11 04:23:06;;;;;;;4.65;1.90;;;31.60;99.90;;;;;;4208745;28;20052;-68
2022/08/11 04:25:43;;;;;;;4.45;1.90;;;31.80;99.90;;;;;;4195060;28;20052;-68
2022/08/11 04:28:23;;;;;;;5.97;1.70;;;31.90;99.90;;;;;;4199984;28;20056;-68
2022/08/11 04:31:05;;;;;;;3.70;1.90;;;31.80;99.90;;;;;;4208862;28;20056;-68
2022/08/11 04:33:40;;;;;;;3.30;1.75;;;31.90;99.90;;;;;;4192479;28;20508;-68
2022/08/11 04:36:17;;;;;;;5.40;1.85;;;31.90;99.90;;;;;;4211649;28;20052;-68
2022/08/11 04:38:47;;;;;;;5.78;1.95;;;31.80;99.90;;;;;;4194703;28;20079;-69
2022/08/11 04:41:15;;;;;;;4.88;1.77;;;31.70;99.90;;;;;;4210412;28;20044;-68
2022/08/11 04:43:44;;;;;;;5.95;1.90;;;31.70;99.90;;;;;;4195029;28;20036;-67
2022/08/11 04:46:40;;;;;;;4.55;1.75;;;31.70;99.90;;;;;;4194741;28;20044;-68
2022/08/11 05:02:41;;;;;;;7.28;1.85;;;31.80;99.90;;;;;;4194711;28;20135;-68
2022/08/11 05:08:08;;;;;;;5.80;1.90;;;31.60;99.90;;;;;;4210269;28;20063;-67
2022/08/11 05:10:44;;;;;;;3.55;1.90;;;31.60;99.90;;;;;;4194548;28;20087;-68
2022/08/11 05:12:54;;;;;;;5.47;2.03;;;31.60;99.90;;;;;;4207560;28;20044;-68
2022/08/11 05:36:51;;;;;;;7.28;2.42;;;31.60;99.90;;;;;;4206357;28;20055;-68
2022/08/11 05:58:10;;;;;;;5.60;1.50;;;32.50;99.00;;;;;;4214049;28;20127;-67
2022/08/11 06:00:14;;;;;;;4.55;1.58;;;32.50;98.60;;;;;;4213731;28;20060;-67
2022/08/11 06:02:21;;;;;;;3.92;1.60;;;32.50;98.30;;;;;;4214134;28;20127;-67
2022/08/11 06:04:28;;;;;;;7.43;1.90;;;32.50;98.30;;;;;;4213666;28;20492;-67
2022/08/11 06:06:33;;;;;;;4.85;1.45;;;32.50;97.70;;;;;;4213883;28;20040;-67
2022/08/11 06:08:38;;;;;;;4.95;1.48;;;32.60;98.10;;;;;;4213403;28;20127;-68
2022/08/11 06:10:45;;;;;;;3.95;1.55;;;32.60;97.90;;;;;;4212599;28;20506;-68
2022/08/11 06:12:52;;;;;;;5.38;1.60;;;32.70;97.60;;;;;;4213689;28;20040;-68
2022/08/11 06:15:17;;;;;;;7.05;1.33;;;32.70;96.90;;;;;;4213632;28;20071;-68
2022/08/11 06:17:27;;;;;;;4.72;1.23;;;32.70;97.20;;;;;;4213689;28;20052;-69
2022/08/11 06:19:42;;;;;;;26.80;4.40;;;32.70;96.70;;;;;;4214123;28;20048;-68
2022/08/11 06:21:48;;;;;;;55.17;7.72;;;32.80;96.20;;;;;;4213711;28;20079;-69
2022/08/11 06:23:55;;;;;;;81.28;13.88;;;32.80;96.50;;;;;;4213743;28;20105;-68
2022/08/11 06:26:00;;;;;;;77.82;10.60;;;32.70;96.20;;;;;;4213786;28;20372;-66
2022/08/11 06:28:10;;;;;;;67.55;8.70;;;32.70;96.40;;;;;;4213670;28;20043;-67
2022/08/11 06:30:38;;;;;;;79.90;12.57;;;32.60;96.60;;;;;;4213448;28;20052;-67
2022/08/11 06:32:45;;;;;;;24.63;4.15;;;32.60;96.60;;;;;;4213376;28;20284;-67
2022/08/11 06:35:31;;;;;;;15.77;3.35;;;32.60;97.00;;;;;;4213505;28;20452;-67
2022/08/11 06:38:08;;;;;;;36.30;5.75;;;32.50;97.10;;;;;;4213350;28;20058;-66
2022/08/11 06:40:40;;;;;;;26.13;4.88;;;32.50;97.10;;;;;;4213407;28;20454;-67
2022/08/11 06:43:17;;;;;;;16.95;3.33;;;32.40;97.20;;;;;;4208604;28;20448;-67
2022/08/11 06:45:47;;;;;;;12.27;2.75;;;32.30;97.40;;;;;;4213275;28;20044;-67
2022/08/11 06:47:52;;;;;;;9.13;2.13;;;32.30;97.50;;;;;;4213060;28;20627;-67
2022/08/11 06:52:16;;;;;;;4.75;1.80;;;32.40;97.80;;;;;;4213561;28;20043;-67
2022/08/11 06:54:40;;;;;;;5.82;2.00;;;32.50;97.70;;;;;;4213160;28;20044;-67
2022/08/11 07:02:05;;;;;;;4.07;1.45;;;32.20;97.70;;;;;;4190844;28;20291;-69
2022/08/11 07:04:11;;;;;;;7.93;1.85;;;32.10;97.90;;;;;;4182580;28;20102;-69
2022/08/11 07:06:40;;;;;;;4.95;1.60;;;32.10;98.40;;;;;;4174728;28;20045;-68
2022/08/11 07:16:41;;;;;;;8.80;2.13;;;32.30;97.80;;;;;;4176143;28;20052;-67
2022/08/11 07:30:44;;;;;;;4.68;1.77;;;32.40;98.40;;;;;;4157651;28;20055;-68
2022/08/11 07:32:58;;;;;;;4.93;1.42;;;32.30;98.30;;;;;;4190610;28;20056;-69
2022/08/11 07:35:15;;;;;;;9.05;1.73;;;32.30;98.40;;;;;;4190852;28;20080;-69
2022/08/11 07:37:20;;;;;;;4.00;1.35;;;32.30;98.00;;;;;;4173399;28;20053;-69
2022/08/11 07:39:32;;;;;;;3.83;1.55;;;32.40;97.90;;;;;;4190374;28;20114;-69
2022/08/11 07:41:37;;;;;;;3.60;1.30;;;32.50;97.90;;;;;;4189884;28;20131;-69
2022/08/11 07:43:47;;;;;;;5.05;1.40;;;32.60;97.70;;;;;;4189747;28;20079;-69
2022/08/11 07:52:47;;;;;;;33.88;4.40;;;32.60;97.30;;;;;;4189993;28;20044;-69
2022/08/11 07:55:09;;;;;;;11.98;2.10;;;32.60;97.40;;;;;;4197853;28;20079;-69
2022/08/11 08:18:19;;;;;;;3.55;1.55;;;32.80;97.00;;;;;;4201685;28;20125;-68
2022/08/11 08:20:53;;;;;;;5.00;1.58;;;32.80;97.00;;;;;;4195948;28;20060;-67
2022/08/11 08:22:59;;;;;;;5.30;1.55;;;32.80;96.80;;;;;;4208923;28;20052;-67
2022/08/11 08:25:06;;;;;;;3.80;1.70;;;32.70;96.60;;;;;;4210854;28;20040;-68
2022/08/11 08:27:13;;;;;;;4.47;1.67;;;32.60;96.60;;;;;;4212061;28;20765;-68
2022/08/11 08:31:35;;;;;;;5.35;1.63;;;32.80;96.70;;;;;;4211910;28;20848;-68
2022/08/11 08:33:41;;;;;;;4.00;1.88;;;32.80;96.50;;;;;;4211537;28;20047;-68
2022/08/11 08:35:46;;;;;;;6.03;1.48;;;32.80;96.40;;;;;;4211636;28;20044;-69
2022/08/11 08:38:01;;;;;;;4.32;1.38;;;32.90;96.00;;;;;;4211615;28;20044;-68
2022/08/11 08:40:08;;;;;;;7.35;1.65;;;32.80;96.30;;;;;;4210255;28;20048;-68
2022/08/11 08:42:16;;;;;;;3.63;1.40;;;32.80;96.30;;;;;;4211832;28;20550;-69
2022/08/11 08:44:29;;;;;;;3.33;1.48;;;32.90;96.40;;;;;;4210557;28;20047;-69
2022/08/11 08:46:48;;;;;;;3.03;1.60;;;32.80;96.60;;;;;;4211840;28;20097;-69
2022/08/11 08:48:53;;;;;;;5.72;1.90;;;32.70;96.40;;;;;;4211455;28;20070;-70
2022/08/11 08:53:21;;;;;;;6.55;2.45;;;32.70;96.60;;;;;;4212020;28;20048;-69
2022/08/11 08:55:26;;;;;;;7.80;2.22;;;32.70;96.80;;;;;;4211538;28;20106;-69
2022/08/11 08:57:35;;;;;;;4.45;1.48;;;32.70;96.60;;;;;;4211655;28;20166;-67
2022/08/11 08:59:45;;;;;;;4.30;1.73;;;32.60;96.20;;;;;;4210477;28;20064;-66
2022/08/11 09:02:05;;;;;;;5.82;2.00;;;32.60;96.30;;;;;;4210028;28;21020;-68
2022/08/11 09:04:11;;;;;;;5.88;1.83;;;32.50;96.50;;;;;;4207515;28;20052;-68
2022/08/11 09:06:24;;;;;;;5.28;1.60;;;32.60;96.80;;;;;;4211237;28;20469;-67
2022/08/11 09:08:31;;;;;;;2.25;1.23;;;32.60;96.80;;;;;;4211386;28;20142;-68
2022/08/11 09:10:38;;;;;;;3.40;1.52;;;32.60;96.90;;;;;;4210435;28;20032;-67
2022/08/11 09:12:46;;;;;;;4.00;1.65;;;32.60;96.80;;;;;;4211682;28;20048;-68
2022/08/11 09:17:11;;;;;;;5.00;1.33;;;32.50;96.20;;;;;;4213742;28;20087;-68
2022/08/11 09:19:17;;;;;;;6.30;1.60;;;32.50;96.60;;;;;;4215034;28;20097;-68
2022/08/11 09:21:23;;;;;;;5.82;1.33;;;32.50;96.40;;;;;;4213842;28;20067;-69
2022/08/11 09:28:48;;;;;;;6.63;2.05;;;32.50;96.90;;;;;;4178883;28;20809;-70
2022/08/11 09:30:53;;;;;;;3.88;1.60;;;32.60;96.90;;;;;;4179463;28;20048;-70
2022/08/11 09:33:00;;;;;;;4.97;1.73;;;32.60;96.90;;;;;;4178538;28;20672;-70
2022/08/11 09:35:07;;;;;;;4.47;1.40;;;32.60;96.70;;;;;;4194167;28;20925;-71
2022/08/11 09:42:06;;;;;;;4.93;1.45;;;32.60;96.40;;;;;;4195605;28;20139;-69
2022/08/11 09:46:38;;;;;;;4.47;1.60;;;32.50;96.60;;;;;;4195481;28;20043;-72
2022/08/11 09:48:45;;;;;;;6.97;1.83;;;32.60;96.70;;;;;;4204443;28;20039;-71
2022/08/11 09:50:51;;;;;;;6.55;1.50;;;32.60;96.70;;;;;;4213084;28;20047;-71
2022/08/11 09:52:58;;;;;;;4.25;1.42;;;32.50;96.60;;;;;;4213289;28;20471;-70
2022/08/11 09:55:24;;;;;;;3.30;1.58;;;32.50;96.50;;;;;;4178908;28;20056;-70
2022/08/11 09:59:50;;;;;;;3.28;1.17;;;32.40;96.70;;;;;;4178523;28;20052;-70
2022/08/11 10:02:17;;;;;;;8.38;1.60;;;32.30;97.00;;;;;;4178931;28;20139;-70
2022/08/11 10:04:33;;;;;;;2.83;1.50;;;32.40;96.90;;;;;;4178863;28;20539;-71
2022/08/11 10:08:58;;;;;;;3.28;1.25;;;32.30;97.10;;;;;;4178028;28;20047;-69
2022/08/11 10:11:02;;;;;;;4.13;1.30;;;32.20;97.30;;;;;;4178247;28;20041;-70
2022/08/11 10:13:09;;;;;;;4.72;1.30;;;32.20;97.10;;;;;;4178489;28;20049;-70
2022/08/11 10:15:37;;;;;;;3.58;1.27;;;32.10;97.10;;;;;;4128505;28;20149;-71
2022/08/11 10:20:27;;;;;;;5.77;1.37;;;32.00;97.30;;;;;;4145042;28;20058;-70
2022/08/11 10:27:12;;;;;;;5.35;2.10;;;31.90;97.00;;;;;;4129170;28;20050;-72
2022/08/11 10:34:04;;;;;;;3.15;1.25;;;31.90;96.80;;;;;;4174280;28;20279;-71
2022/08/11 10:36:13;;;;;;;7.88;1.60;;;31.80;97.00;;;;;;4169076;28;20111;-71
2022/08/11 10:38:19;;;;;;;4.07;1.48;;;31.80;96.90;;;;;;4169410;28;20116;-71
2022/08/11 10:40:23;;;;;;;5.78;2.75;;;31.70;97.10;;;;;;4175873;28;20109;-71
2022/08/11 10:45:00;;;;;;;3.35;2.00;;;31.70;97.20;;;;;;4161471;28;20406;-70
2022/08/11 10:49:26;;;;;;;4.00;1.52;;;31.60;97.30;;;;;;4164434;28;20132;-69
2022/08/11 11:00:57;;;;;;;4.22;1.38;;;31.40;97.90;;;;;;4208720;28;20091;-70
2022/08/11 11:03:02;;;;;;;4.03;1.40;;;31.40;98.10;;;;;;4211096;28;20052;-69
2022/08/11 11:05:29;;;;;;;7.05;1.20;;;31.30;97.80;;;;;;4209526;28;20043;-71
2022/08/11 11:08:51;;;;;;;6.47;2.00;;;31.30;97.80;;;;;;4211367;28;20040;-69
2022/08/11 11:10:25;;;;;;;2.33;1.40;;;31.30;98.40;;;;;;4211116;28;20565;-71
2022/08/11 11:20:00;;;;;;;4.05;1.30;;;31.20;98.20;;;;;;4204889;28;20127;-71
2022/08/11 11:24:41;;;;;;;2.95;1.45;;;31.10;98.30;;;;;;4211168;28;20048;-69
2022/08/11 11:27:11;;;;;;;3.17;1.60;;;31.20;98.20;;;;;;4210704;28;20061;-70
2022/08/11 11:29:53;;;;;;;4.22;1.50;;;31.10;98.30;;;;;;4210680;28;20039;-70
2022/08/11 11:32:23;;;;;;;4.32;1.40;;;31.10;98.20;;;;;;4202532;28;20931;-69
2022/08/11 11:35:00;;;;;;;6.40;1.90;;;31.00;98.60;;;;;;4204991;28;20059;-71
2022/08/11 11:37:06;;;;;;;5.90;1.65;;;31.00;98.80;;;;;;4203038;28;20048;-70
2022/08/11 11:39:11;;;;;;;4.65;1.70;;;30.90;99.00;;;;;;4205888;28;20040;-70
2022/08/11 11:41:24;;;;;;;5.05;1.60;;;30.90;99.00;;;;;;4202162;28;20127;-71
2022/08/11 11:43:30;;;;;;;6.03;1.77;;;30.90;99.10;;;;;;4205818;28;20976;-70
2022/08/11 11:45:35;;;;;;;6.30;1.45;;;30.90;99.20;;;;;;4201265;28;20048;-70
2022/08/11 11:47:43;;;;;;;3.63;1.67;;;30.90;99.30;;;;;;4204591;28;20148;-70
2022/08/11 11:49:48;;;;;;;4.93;1.67;;;30.90;99.30;;;;;;4204274;28;20894;-70
2022/08/11 11:51:55;;;;;;;5.68;1.60;;;30.90;99.40;;;;;;4202938;28;20044;-71
2022/08/11 11:54:04;;;;;;;11.20;2.20;;;31.00;99.40;;;;;;4203763;28;20044;-71
2022/08/11 11:56:13;;;;;;;4.22;2.05;;;30.90;99.60;;;;;;4204303;28;20128;-71
2022/08/11 12:02:58;;;;;;;7.80;1.85;;;30.80;99.90;;;;;;4203830;28;20082;-70
2022/08/11 12:05:04;;;;;;;7.28;2.03;;;30.80;99.90;;;;;;4200802;28;20051;-70
2022/08/11 12:09:29;;;;;;;74.18;57.97;;;30.80;99.90;;;;;;4202458;28;20147;-71
2022/08/11 12:14:00;;;;;;;35.60;26.00;;;30.70;99.90;;;;;;4202622;28;20052;-70
2022/08/11 12:16:09;;;;;;;19.30;14.43;;;30.70;99.90;;;;;;4201727;28;20583;-71
2022/08/11 12:18:35;;;;;;;9.70;6.82;;;30.70;99.90;;;;;;4202277;28;20064;-70
2022/08/11 12:20:43;;;;;;;10.30;6.05;;;30.70;99.90;;;;;;4203035;28;20071;-70
2022/08/11 12:27:29;;;;;;;6.72;2.63;;;30.60;99.90;;;;;;4204816;28;20780;-70
2022/08/11 12:29:35;;;;;;;8.98;2.75;;;30.50;99.90;;;;;;4204703;28;20118;-69
2022/08/11 12:31:46;;;;;;;5.53;2.97;;;30.60;99.90;;;;;;4203374;28;20620;-70
2022/08/11 12:33:59;;;;;;;6.10;3.90;;;30.60;99.90;;;;;;4205141;28;20039;-70
2022/08/11 12:36:04;;;;;;;8.27;3.30;;;30.60;99.90;;;;;;4204829;28;20482;-70
2022/08/11 12:38:09;;;;;;;6.45;2.90;;;30.50;99.90;;;;;;4205706;28;20105;-71
2022/08/11 12:45:29;;;;;;;5.72;2.47;;;30.50;99.90;;;;;;4204791;28;20056;-71
2022/08/11 12:51:55;;;;;;;4.90;2.60;;;30.50;99.90;;;;;;4205608;28;20040;-71
2022/08/11 12:52:48;;;;;;;7.07;2.42;;;30.40;99.90;;;;;;4204765;28;20887;-71
2022/08/11 12:55:11;;;;;;;6.82;2.28;;;30.40;99.90;;;;;;4203770;28;20044;-71
2022/08/11 13:07:01;;;;;;;5.97;2.00;;;30.50;99.90;;;;;;4206318;28;20159;-71
2022/08/11 13:09:07;;;;;;;7.47;2.10;;;30.50;99.90;;;;;;4205688;28;20101;-72
2022/08/11 13:13:56;;;;;;;4.20;1.80;;;30.50;99.90;;;;;;4191915;28;20446;-71
2022/08/11 13:16:01;;;;;;;7.13;1.88;;;30.50;99.90;;;;;;4198986;28;20498;-71
2022/08/11 13:18:07;;;;;;;5.35;1.80;;;30.50;99.90;;;;;;4204123;28;20151;-72
2022/08/11 13:20:16;;;;;;;4.97;1.92;;;30.40;99.90;;;;;;4203375;28;20131;-71
2022/08/11 13:22:23;;;;;;;5.07;1.83;;;30.40;99.90;;;;;;4205423;28;20685;-70
2022/08/11 13:24:28;;;;;;;5.43;2.03;;;30.40;99.90;;;;;;4206962;28;20040;-70
2022/08/11 13:26:36;;;;;;;7.38;2.38;;;30.40;99.90;;;;;;4207126;28;20467;-71
2022/08/11 13:28:54;;;;;;;6.10;2.35;;;30.40;99.90;;;;;;4205286;28;20040;-72
2022/08/11 13:33:19;;;;;;;4.25;1.80;;;30.40;99.90;;;;;;4207069;28;20043;-72
2022/08/11 13:35:26;;;;;;;4.80;2.17;;;30.30;99.90;;;;;;4206469;28;20040;-71
2022/08/11 13:37:35;;;;;;;5.35;2.00;;;30.20;99.90;;;;;;4205595;28;20425;-72
2022/08/11 13:40:02;;;;;;;4.40;1.95;;;30.30;99.80;;;;;;4207214;28;20047;-72
2022/08/11 13:42:07;;;;;;;4.00;1.95;;;30.20;99.90;;;;;;4207664;28;20051;-71
2022/08/11 13:44:15;;;;;;;8.00;2.40;;;30.20;99.80;;;;;;4206305;28;20070;-71
2022/08/11 13:46:29;;;;;;;4.30;2.10;;;30.30;99.90;;;;;;4220599;28;20114;-71
2022/08/11 13:48:36;;;;;;;3.60;1.70;;;30.20;99.90;;;;;;4220340;28;20093;-71
2022/08/11 13:53:02;;;;;;;5.00;2.20;;;30.20;99.90;;;;;;4206347;28;20052;-71
2022/08/11 13:55:20;;;;;;;9.00;2.33;;;30.20;99.90;;;;;;4206307;28;20067;-71
2022/08/11 13:57:48;;;;;;;6.50;2.22;;;30.10;99.90;;;;;;4206871;28;20773;-71
2022/08/11 14:00:18;;;;;;;7.22;1.98;;;30.10;99.90;;;;;;4206177;28;20082;-72
2022/08/11 14:02:30;;;;;;;5.45;1.85;;;30.10;99.90;;;;;;4205485;28;20086;-72
2022/08/11 14:04:43;;;;;;;7.03;2.15;;;30.10;99.90;;;;;;4211191;28;20426;-72
2022/08/11 14:06:53;;;;;;;4.88;2.45;;;30.10;99.90;;;;;;4208692;28;20068;-72
2022/08/11 14:08:59;;;;;;;4.78;2.00;;;30.10;99.90;;;;;;4211419;28;20040;-72
2022/08/11 14:13:45;;;;;;;3.40;1.90;;;30.10;99.90;;;;;;4210022;28;20478;-71
2022/08/11 14:15:51;;;;;;;4.18;2.03;;;30.10;99.90;;;;;;4208087;28;20076;-72
2022/08/11 14:18:06;;;;;;;5.97;2.00;;;30.10;99.90;;;;;;4206897;28;20130;-70
2022/08/11 14:20:11;;;;;;;6.05;2.17;;;30.10;99.90;;;;;;4208533;28;20269;-71
2022/08/11 14:22:37;;;;;;;6.40;2.08;;;30.10;99.90;;;;;;4206821;28;20469;-71
2022/08/11 14:24:48;;;;;;;6.65;2.05;;;30.00;99.90;;;;;;4207903;28;20593;-71
2022/08/11 14:26:56;;;;;;;4.60;1.90;;;30.00;99.90;;;;;;4210047;28;20036;-71
2022/08/11 14:29:16;;;;;;;5.68;2.03;;;29.90;99.90;;;;;;4208491;28;20052;-71
2022/08/11 14:31:24;;;;;;;5.43;1.95;;;29.90;99.90;;;;;;4172837;28;20041;-72
2022/08/11 14:33:33;;;;;;;7.03;1.92;;;29.90;99.90;;;;;;4207659;28;20048;-71
2022/08/11 14:36:04;;;;;;;4.68;1.88;;;30.00;99.90;;;;;;4209039;28;20450;-71
2022/08/11 14:38:13;;;;;;;5.13;2.00;;;29.90;99.90;;;;;;4206230;28;20477;-71
2022/08/11 14:47:17;;;;;;;8.63;1.95;;;29.90;99.90;;;;;;4208477;28;20387;-72
2022/08/11 14:49:28;;;;;;;5.22;1.90;;;29.90;99.90;;;;;;4208875;28;20040;-72
2022/08/11 14:51:32;;;;;;;6.85;1.92;;;29.90;99.90;;;;;;4208819;28;20131;-72
2022/08/11 14:53:37;;;;;;;6.55;2.17;;;29.90;99.90;;;;;;4207241;28;20082;-72
2022/08/11 14:58:17;;;;;;;5.60;2.30;;;29.90;99.90;;;;;;4208741;28;20048;-71
2022/08/11 15:00:25;;;;;;;5.10;2.45;;;29.90;99.90;;;;;;4191525;28;20143;-71
2022/08/11 15:04:50;;;;;;;6.68;2.58;;;29.80;99.90;;;;;;4208607;28;20048;-72
2022/08/11 15:06:58;;;;;;;5.63;2.55;;;29.80;99.90;;;;;;4188216;28;20091;-71
2022/08/11 15:09:03;;;;;;;7.70;2.40;;;29.80;99.90;;;;;;4208203;28;20514;-71
2022/08/11 15:13:35;;;;;;;8.70;3.25;;;29.80;99.90;;;;;;4207349;28;20036;-71
2022/08/11 15:17:58;;;;;;;8.25;3.13;;;29.70;99.90;;;;;;4206130;28;20181;-71
2022/08/11 15:24:43;;;;;;;9.45;3.80;;;29.60;99.90;;;;;;4208220;28;20105;-65
2022/08/11 15:38:10;;;;;;;8.98;4.50;;;29.60;99.90;;;;;;4205643;28;20043;-65
2022/08/11 15:48:01;;;;;;;11.65;4.55;;;29.60;99.90;;;;;;4207469;28;20067;-65
2022/08/11 15:50:13;;;;;;;8.40;4.60;;;29.60;99.90;;;;;;4207846;28;20074;-65
2022/08/11 15:52:21;;;;;;;8.15;4.55;;;29.50;99.90;;;;;;4207560;28;20040;-65
2022/08/11 15:54:29;;;;;;;10.30;4.28;;;29.60;99.90;;;;;;4205998;28;20060;-65
2022/08/11 15:56:35;;;;;;;8.23;4.60;;;29.60;99.90;;;;;;4207545;28;20955;-65
2022/08/11 16:06:12;;;;;;;9.68;4.03;;;29.50;99.90;;;;;;4207317;28;20074;-64
2022/08/11 16:08:23;;;;;;;11.48;5.03;;;29.50;99.90;;;;;;4207179;28;20082;-64
2022/08/11 16:10:38;;;;;;;8.93;5.00;;;29.50;99.90;;;;;;4207510;28;20036;-65
2022/08/11 16:17:31;;;;;;;9.48;4.75;;;29.30;99.90;;;;;;4207662;28;20044;-64
2022/08/11 16:19:36;;;;;;;10.68;4.55;;;29.30;99.90;;;;;;4205363;28;20051;-64
2022/08/11 16:21:42;;;;;;;13.48;5.32;;;29.30;99.90;;;;;;4209596;28;20117;-64
2022/08/11 16:23:49;;;;;;;9.43;4.30;;;29.30;99.90;;;;;;4209593;28;20593;-64
2022/08/11 16:25:53;;;;;;;10.25;4.50;;;29.40;99.90;;;;;;4206875;28;20048;-64
2022/08/11 16:28:19;;;;;;;9.68;4.35;;;29.40;99.90;;;;;;4209294;28;20098;-64
2022/08/11 16:30:26;;;;;;;9.13;4.32;;;29.30;99.90;;;;;;4209187;28;20072;-64
2022/08/11 16:32:30;;;;;;;8.80;4.55;;;29.30;99.90;;;;;;4206587;28;20498;-64
2022/08/11 16:39:17;;;;;;;11.45;4.78;;;29.20;99.90;;;;;;4195968;28;20060;-65
2022/08/11 16:48:19;;;;;;;11.63;4.85;;;29.30;99.90;;;;;;4208995;28;20044;-65
2022/08/11 16:50:41;;;;;;;12.55;4.13;;;29.40;99.90;;;;;;4207858;28;20048;-64
2022/08/11 16:52:46;;;;;;;10.40;4.10;;;29.30;99.90;;;;;;4208930;28;20437;-64
2022/08/11 16:54:50;;;;;;;8.98;4.25;;;29.30;99.90;;;;;;4209199;28;20765;-64
2022/08/11 16:59:12;;;;;;;8.68;4.40;;;29.30;99.90;;;;;;4208783;28;20485;-64
2022/08/11 16:59:35;;;;;;;9.63;4.47;;;29.30;99.90;;;;;;4208795;28;20836;-64
2022/08/11 17:01:53;;;;;;;10.00;4.10;;;29.30;99.90;;;;;;4207601;28;20060;-64